Trechado, New Mexico
Current Conditions -  °F | °C
As of 8:54 PM on Thursday 18 Dec 2014 (Local Time) from KSJN Reporting Station
Scattered Clouds Scattered Clouds  
Wind Chill: 30°   Ceiling: Unl
Heat Index: 30°   Visibility: 9mi
Dew Point: 29°   Wind: 0mph
Humidity: 96%   Direction: NA
Pressure: 30.17"   Gusts: NA
Location:  34.6557°N, 108.678°W
Report Text: KSJN 190354Z AUTO 00000KT 9SM FEW013 SCT021 M01/M02 A3017 RMK AO2 SLP221 T10111017
Loading
Personal Weather Stations






























Interactive Weather Map New forecast layout! Learn more

10-Day Weather Forecast

Advertisements
Track Severe Weather on mobile